sensor_id;sensor_type;location;lat;lon;timestamp;pressure;altitude;pressure_sealevel;temperature;humidity
72096;BME280;59968;51.084;16.748;2023-02-28T00:00:30;101655.40;;;2.07;67.82
72096;BME280;59968;51.084;16.748;2023-02-28T00:03:14;101651.08;;;2.07;68.00
72096;BME280;59968;51.084;16.748;2023-02-28T00:05:43;101646.70;;;2.06;68.10
72096;BME280;59968;51.084;16.748;2023-02-28T00:08:12;101649.27;;;2.07;68.08
72096;BME280;59968;51.084;16.748;2023-02-28T00:10:41;101649.69;;;2.08;67.69
72096;BME280;59968;51.084;16.748;2023-02-28T00:13:10;101644.76;;;2.10;67.55
72096;BME280;59968;51.084;16.748;2023-02-28T00:15:39;101646.23;;;2.13;67.31
72096;BME280;59968;51.084;16.748;2023-02-28T00:18:09;101648.02;;;2.18;67.03
72096;BME280;59968;51.084;16.748;2023-02-28T00:20:37;101650.59;;;2.20;66.94
72096;BME280;59968;51.084;16.748;2023-02-28T00:23:06;101647.19;;;2.17;67.02
72096;BME280;59968;51.084;16.748;2023-02-28T00:25:35;101645.29;;;2.12;67.17
72096;BME280;59968;51.084;16.748;2023-02-28T00:28:03;101644.87;;;2.13;67.32
72096;BME280;59968;51.084;16.748;2023-02-28T00:30:33;101644.41;;;2.10;67.67
72096;BME280;59968;51.084;16.748;2023-02-28T00:33:05;101641.94;;;2.06;67.92
72096;BME280;59968;51.084;16.748;2023-02-28T00:35:33;101641.95;;;2.06;67.92
72096;BME280;59968;51.084;16.748;2023-02-28T00:38:01;101640.98;;;2.08;67.86
72096;BME280;59968;51.084;16.748;2023-02-28T00:40:30;101642.17;;;2.08;67.93
72096;BME280;59968;51.084;16.748;2023-02-28T00:42:58;101642.27;;;2.09;68.17
72096;BME280;59968;51.084;16.748;2023-02-28T00:45:26;101640.95;;;2.08;68.02
72096;BME280;59968;51.084;16.748;2023-02-28T00:47:55;101641.64;;;2.08;67.56
72096;BME280;59968;51.084;16.748;2023-02-28T00:50:23;101639.02;;;2.09;67.31
72096;BME280;59968;51.084;16.748;2023-02-28T00:52:52;101638.34;;;2.12;67.27
72096;BME280;59968;51.084;16.748;2023-02-28T00:55:20;101639.44;;;2.16;66.77
72096;BME280;59968;51.084;16.748;2023-02-28T00:57:49;101635.70;;;2.18;66.80
72096;BME280;59968;51.084;16.748;2023-02-28T01:00:18;101637.00;;;2.21;66.63
72096;BME280;59968;51.084;16.748;2023-02-28T01:02:46;101637.52;;;2.26;66.75
72096;BME280;59968;51.084;16.748;2023-02-28T01:05:15;101636.72;;;2.28;65.98
72096;BME280;59968;51.084;16.748;2023-02-28T01:07:45;101635.23;;;2.27;65.84
72096;BME280;59968;51.084;16.748;2023-02-28T01:10:13;101634.48;;;2.30;65.62
72096;BME280;59968;51.084;16.748;2023-02-28T01:12:41;101637.52;;;2.34;65.61
72096;BME280;59968;51.084;16.748;2023-02-28T01:15:10;101637.98;;;2.34;65.56
72096;BME280;59968;51.084;16.748;2023-02-28T01:17:39;101636.98;;;2.34;65.61
72096;BME280;59968;51.084;16.748;2023-02-28T01:20:08;101638.09;;;2.33;65.82
72096;BME280;59968;51.084;16.748;2023-02-28T01:22:37;101635.34;;;2.33;65.92
72096;BME280;59968;51.084;16.748;2023-02-28T01:25:06;101637.27;;;2.35;65.81
72096;BME280;59968;51.084;16.748;2023-02-28T01:27:35;101629.98;;;2.36;65.72
72096;BME280;59968;51.084;16.748;2023-02-28T01:30:04;101628.27;;;2.34;65.89
72096;BME280;59968;51.084;16.748;2023-02-28T01:32:32;101629.80;;;2.34;65.82
72096;BME280;59968;51.084;16.748;2023-02-28T01:35:00;101628.42;;;2.32;65.46
72096;BME280;59968;51.084;16.748;2023-02-28T01:37:28;101628.72;;;2.32;65.32
72096;BME280;59968;51.084;16.748;2023-02-28T01:39:57;101630.63;;;2.35;65.35
72096;BME280;59968;51.084;16.748;2023-02-28T01:42:25;101636.14;;;2.34;65.57
72096;BME280;59968;51.084;16.748;2023-02-28T01:47:36;101633.08;;;2.26;65.54
72096;BME280;59968;51.084;16.748;2023-02-28T01:50:10;101629.58;;;2.25;65.35
72096;BME280;59968;51.084;16.748;2023-02-28T01:52:41;101627.05;;;2.25;65.07
72096;BME280;59968;51.084;16.748;2023-02-28T01:55:11;101632.42;;;2.26;65.18
72096;BME280;59968;51.084;16.748;2023-02-28T01:57:45;101632.56;;;2.29;65.21
72096;BME280;59968;51.084;16.748;2023-02-28T02:00:18;101632.15;;;2.30;65.21
72096;BME280;59968;51.084;16.748;2023-02-28T02:02:51;101634.11;;;2.31;65.01
72096;BME280;59968;51.084;16.748;2023-02-28T02:05:26;101636.61;;;2.32;64.71
72096;BME280;59968;51.084;16.748;2023-02-28T02:07:56;101633.52;;;2.32;64.42
72096;BME280;59968;51.084;16.748;2023-02-28T02:29:45;101624.75;;;2.30;64.97
72096;BME280;59968;51.084;16.748;2023-02-28T02:32:33;101623.10;;;2.32;64.97
72096;BME280;59968;51.084;16.748;2023-02-28T02:35:27;101619.12;;;2.33;64.96
72096;BME280;59968;51.084;16.748;2023-02-28T02:38:17;101624.75;;;2.30;65.07
72096;BME280;59968;51.084;16.748;2023-02-28T02:43:33;101624.84;;;2.29;65.25
72096;BME280;59968;51.084;16.748;2023-02-28T02:48:56;101626.59;;;2.26;65.22
72096;BME280;59968;51.084;16.748;2023-02-28T02:51:27;101624.11;;;2.27;65.15
72096;BME280;59968;51.084;16.748;2023-02-28T02:54:05;101624.49;;;2.29;65.10
72096;BME280;59968;51.084;16.748;2023-02-28T02:56:36;101616.52;;;2.31;65.39
72096;BME280;59968;51.084;16.748;2023-02-28T02:59:10;101620.34;;;2.30;65.25
72096;BME280;59968;51.084;16.748;2023-02-28T03:01:41;101612.86;;;2.27;65.43
72096;BME280;59968;51.084;16.748;2023-02-28T03:04:16;101616.06;;;2.26;65.55
72096;BME280;59968;51.084;16.748;2023-02-28T03:06:47;101614.21;;;2.27;65.19
72096;BME280;59968;51.084;16.748;2023-02-28T03:09:16;101617.27;;;2.30;65.32
72096;BME280;59968;51.084;16.748;2023-02-28T03:11:46;101618.04;;;2.31;65.28
72096;BME280;59968;51.084;16.748;2023-02-28T03:14:40;101623.67;;;2.34;65.32
72096;BME280;59968;51.084;16.748;2023-02-28T03:22:56;101620.55;;;2.40;65.11
72096;BME280;59968;51.084;16.748;2023-02-28T03:31:10;101618.82;;;2.35;64.73
72096;BME280;59968;51.084;16.748;2023-02-28T03:33:49;101628.05;;;2.35;64.98
72096;BME280;59968;51.084;16.748;2023-02-28T03:36:26;101626.81;;;2.35;64.81
72096;BME280;59968;51.084;16.748;2023-02-28T03:39:04;101627.31;;;2.35;64.55
72096;BME280;59968;51.084;16.748;2023-02-28T03:41:45;101630.27;;;2.35;64.54
72096;BME280;59968;51.084;16.748;2023-02-28T03:44:54;101633.36;;;2.34;64.21
72096;BME280;59968;51.084;16.748;2023-02-28T03:47:46;101633.47;;;2.35;64.37
72096;BME280;59968;51.084;16.748;2023-02-28T03:50:27;101636.02;;;2.38;63.88
72096;BME280;59968;51.084;16.748;2023-02-28T03:53:04;101635.22;;;2.39;63.85
72096;BME280;59968;51.084;16.748;2023-02-28T03:55:40;101637.46;;;2.40;63.96
72096;BME280;59968;51.084;16.748;2023-02-28T04:01:15;101642.83;;;2.43;64.12
72096;BME280;59968;51.084;16.748;2023-02-28T04:03:45;101640.69;;;2.42;63.91
72096;BME280;59968;51.084;16.748;2023-02-28T04:06:18;101638.60;;;2.43;63.96
72096;BME280;59968;51.084;16.748;2023-02-28T04:08:48;101639.09;;;2.43;64.01
72096;BME280;59968;51.084;16.748;2023-02-28T04:11:22;101639.04;;;2.46;63.95
72096;BME280;59968;51.084;16.748;2023-02-28T04:13:50;101639.80;;;2.47;63.75
72096;BME280;59968;51.084;16.748;2023-02-28T04:16:19;101639.61;;;2.45;63.83
72096;BME280;59968;51.084;16.748;2023-02-28T04:19:06;101646.16;;;2.47;64.22
72096;BME280;59968;51.084;16.748;2023-02-28T04:21:37;101648.57;;;2.49;64.35
72096;BME280;59968;51.084;16.748;2023-02-28T04:24:11;101652.33;;;2.49;64.41
72096;BME280;59968;51.084;16.748;2023-02-28T04:26:44;101654.13;;;2.50;64.50
72096;BME280;59968;51.084;16.748;2023-02-28T04:29:17;101656.67;;;2.50;64.54
72096;BME280;59968;51.084;16.748;2023-02-28T04:31:46;101656.36;;;2.50;64.36
72096;BME280;59968;51.084;16.748;2023-02-28T04:34:15;101656.35;;;2.50;64.39
72096;BME280;59968;51.084;16.748;2023-02-28T04:36:44;101655.40;;;2.54;64.21
72096;BME280;59968;51.084;16.748;2023-02-28T04:39:13;101660.05;;;2.56;63.86
72096;BME280;59968;51.084;16.748;2023-02-28T04:41:43;101665.11;;;2.57;63.72
72096;BME280;59968;51.084;16.748;2023-02-28T04:44:11;101663.34;;;2.60;63.52
72096;BME280;59968;51.084;16.748;2023-02-28T04:46:39;101660.66;;;2.57;63.43
72096;BME280;59968;51.084;16.748;2023-02-28T04:49:11;101661.48;;;2.58;63.54
72096;BME280;59968;51.084;16.748;2023-02-28T04:51:40;101661.20;;;2.59;63.65
72096;BME280;59968;51.084;16.748;2023-02-28T04:54:09;101666.39;;;2.60;63.47
72096;BME280;59968;51.084;16.748;2023-02-28T04:56:38;101665.76;;;2.62;63.35
72096;BME280;59968;51.084;16.748;2023-02-28T04:59:06;101663.18;;;2.60;63.20
72096;BME280;59968;51.084;16.748;2023-02-28T05:01:35;101659.21;;;2.60;63.19
72096;BME280;59968;51.084;16.748;2023-02-28T05:04:04;101663.85;;;2.63;63.37
72096;BME280;59968;51.084;16.748;2023-02-28T05:06:33;101665.40;;;2.62;64.28
72096;BME280;59968;51.084;16.748;2023-02-28T05:09:02;101665.69;;;2.61;64.65
72096;BME280;59968;51.084;16.748;2023-02-28T05:11:33;101669.71;;;2.59;64.61
72096;BME280;59968;51.084;16.748;2023-02-28T05:14:13;101669.50;;;2.57;64.85
72096;BME280;59968;51.084;16.748;2023-02-28T05:16:42;101670.94;;;2.57;64.56
72096;BME280;59968;51.084;16.748;2023-02-28T05:19:10;101669.59;;;2.56;64.48
72096;BME280;59968;51.084;16.748;2023-02-28T05:21:53;101675.77;;;2.56;64.46
72096;BME280;59968;51.084;16.748;2023-02-28T05:24:22;101674.33;;;2.57;64.06
72096;BME280;59968;51.084;16.748;2023-02-28T05:26:53;101674.06;;;2.58;63.61
72096;BME280;59968;51.084;16.748;2023-02-28T05:29:22;101675.16;;;2.59;63.28
72096;BME280;59968;51.084;16.748;2023-02-28T05:31:51;101675.33;;;2.62;63.23
72096;BME280;59968;51.084;16.748;2023-02-28T05:34:19;101673.92;;;2.65;63.13
72096;BME280;59968;51.084;16.748;2023-02-28T05:36:48;101675.78;;;2.68;63.11
72096;BME280;59968;51.084;16.748;2023-02-28T05:39:16;101677.77;;;2.71;63.09
72096;BME280;59968;51.084;16.748;2023-02-28T05:41:44;101677.75;;;2.72;63.28
72096;BME280;59968;51.084;16.748;2023-02-28T05:44:13;101683.78;;;2.69;63.32
72096;BME280;59968;51.084;16.748;2023-02-28T05:46:41;101686.17;;;2.63;63.70
72096;BME280;59968;51.084;16.748;2023-02-28T05:49:09;101690.04;;;2.62;63.88
72096;BME280;59968;51.084;16.748;2023-02-28T05:51:38;101687.83;;;2.59;63.91
72096;BME280;59968;51.084;16.748;2023-02-28T05:54:08;101690.42;;;2.61;63.81
72096;BME280;59968;51.084;16.748;2023-02-28T05:56:36;101691.66;;;2.63;63.94
72096;BME280;59968;51.084;16.748;2023-02-28T05:59:07;101694.05;;;2.66;63.89
72096;BME280;59968;51.084;16.748;2023-02-28T06:01:41;101697.98;;;2.68;63.89
72096;BME280;59968;51.084;16.748;2023-02-28T06:04:10;101698.40;;;2.70;63.71
72096;BME280;59968;51.084;16.748;2023-02-28T06:06:52;101701.52;;;2.71;63.57
72096;BME280;59968;51.084;16.748;2023-02-28T06:09:24;101701.40;;;2.71;63.30
72096;BME280;59968;51.084;16.748;2023-02-28T06:12:05;101704.54;;;2.70;62.97
72096;BME280;59968;51.084;16.748;2023-02-28T06:14:36;101707.04;;;2.70;63.06
72096;BME280;59968;51.084;16.748;2023-02-28T06:17:05;101711.83;;;2.73;62.97
72096;BME280;59968;51.084;16.748;2023-02-28T06:19:33;101716.11;;;2.75;62.94
72096;BME280;59968;51.084;16.748;2023-02-28T06:22:01;101714.10;;;2.74;63.30
72096;BME280;59968;51.084;16.748;2023-02-28T06:24:30;101715.48;;;2.75;63.34
72096;BME280;59968;51.084;16.748;2023-02-28T06:26:59;101716.65;;;2.75;63.39
72096;BME280;59968;51.084;16.748;2023-02-28T06:29:34;101719.21;;;2.77;63.35
72096;BME280;59968;51.084;16.748;2023-02-28T06:32:02;101719.15;;;2.80;63.19
72096;BME280;59968;51.084;16.748;2023-02-28T06:34:32;101724.98;;;2.83;63.36
72096;BME280;59968;51.084;16.748;2023-02-28T06:37:02;101727.62;;;2.84;63.60
72096;BME280;59968;51.084;16.748;2023-02-28T06:39:31;101731.58;;;2.86;63.60
72096;BME280;59968;51.084;16.748;2023-02-28T06:42:00;101733.33;;;2.88;63.74
72096;BME280;59968;51.084;16.748;2023-02-28T06:44:28;101734.21;;;2.90;64.15
72096;BME280;59968;51.084;16.748;2023-02-28T06:47:05;101737.91;;;2.91;64.21
72096;BME280;59968;51.084;16.748;2023-02-28T06:49:34;101741.89;;;2.92;64.30
72096;BME280;59968;51.084;16.748;2023-02-28T06:52:03;101746.71;;;2.97;64.06
72096;BME280;59968;51.084;16.748;2023-02-28T06:54:32;101747.55;;;3.05;63.71
72096;BME280;59968;51.084;16.748;2023-02-28T06:57:01;101744.42;;;3.07;63.46
72096;BME280;59968;51.084;16.748;2023-02-28T06:59:30;101742.32;;;3.11;62.74
72096;BME280;59968;51.084;16.748;2023-02-28T07:01:59;101744.66;;;3.16;62.48
72096;BME280;59968;51.084;16.748;2023-02-28T07:04:28;101739.91;;;3.26;61.95
72096;BME280;59968;51.084;16.748;2023-02-28T07:06:56;101742.30;;;3.38;61.89
72096;BME280;59968;51.084;16.748;2023-02-28T07:09:25;101746.98;;;3.46;61.38
72096;BME280;59968;51.084;16.748;2023-02-28T07:11:58;101749.37;;;3.54;61.17
72096;BME280;59968;51.084;16.748;2023-02-28T07:14:27;101748.88;;;3.63;60.69
72096;BME280;59968;51.084;16.748;2023-02-28T07:16:55;101751.73;;;3.71;60.26
72096;BME280;59968;51.084;16.748;2023-02-28T07:19:24;101752.52;;;3.74;59.10
72096;BME280;59968;51.084;16.748;2023-02-28T07:21:52;101753.95;;;3.71;59.75
72096;BME280;59968;51.084;16.748;2023-02-28T07:24:21;101754.48;;;3.68;60.55
72096;BME280;59968;51.084;16.748;2023-02-28T07:26:51;101756.41;;;3.70;60.20
72096;BME280;59968;51.084;16.748;2023-02-28T07:29:20;101757.14;;;3.74;60.50
72096;BME280;59968;51.084;16.748;2023-02-28T07:31:49;101760.02;;;3.81;59.78
72096;BME280;59968;51.084;16.748;2023-02-28T07:34:22;101763.23;;;3.89;58.94
72096;BME280;59968;51.084;16.748;2023-02-28T07:36:55;101757.32;;;3.95;58.48
72096;BME280;59968;51.084;16.748;2023-02-28T07:39:23;101758.14;;;4.03;58.01
72096;BME280;59968;51.084;16.748;2023-02-28T07:41:52;101758.42;;;4.11;57.81
72096;BME280;59968;51.084;16.748;2023-02-28T07:44:26;101761.95;;;4.16;57.70
72096;BME280;59968;51.084;16.748;2023-02-28T07:46:55;101764.63;;;4.23;57.19
72096;BME280;59968;51.084;16.748;2023-02-28T07:49:24;101762.38;;;4.31;56.61
72096;BME280;59968;51.084;16.748;2023-02-28T07:51:52;101761.27;;;4.32;56.29
72096;BME280;59968;51.084;16.748;2023-02-28T07:54:21;101762.46;;;4.32;56.18
72096;BME280;59968;51.084;16.748;2023-02-28T07:56:49;101762.03;;;4.38;55.51
72096;BME280;59968;51.084;16.748;2023-02-28T07:59:18;101764.87;;;4.48;54.83
72096;BME280;59968;51.084;16.748;2023-02-28T08:01:46;101762.90;;;4.55;54.08
72096;BME280;59968;51.084;16.748;2023-02-28T08:04:18;101761.35;;;4.65;53.66
72096;BME280;59968;51.084;16.748;2023-02-28T08:06:47;101759.17;;;4.76;53.83
72096;BME280;59968;51.084;16.748;2023-02-28T08:09:20;101755.36;;;4.85;53.71
72096;BME280;59968;51.084;16.748;2023-02-28T08:11:49;101758.46;;;4.93;53.23
72096;BME280;59968;51.084;16.748;2023-02-28T08:14:17;101760.31;;;5.01;52.79
72096;BME280;59968;51.084;16.748;2023-02-28T08:16:47;101759.17;;;5.08;52.42
72096;BME280;59968;51.084;16.748;2023-02-28T08:19:16;101761.16;;;5.14;52.15
72096;BME280;59968;51.084;16.748;2023-02-28T08:21:45;101760.60;;;5.14;52.22
72096;BME280;59968;51.084;16.748;2023-02-28T08:24:13;101763.66;;;5.15;52.17
72096;BME280;59968;51.084;16.748;2023-02-28T08:26:41;101760.48;;;5.16;52.16
72096;BME280;59968;51.084;16.748;2023-02-28T08:29:10;101758.42;;;5.20;51.72
72096;BME280;59968;51.084;16.748;2023-02-28T08:31:39;101757.75;;;5.27;50.96
72096;BME280;59968;51.084;16.748;2023-02-28T08:34:13;101753.96;;;5.29;51.04
72096;BME280;59968;51.084;16.748;2023-02-28T08:36:42;101754.23;;;5.32;51.03
72096;BME280;59968;51.084;16.748;2023-02-28T08:39:13;101749.11;;;5.36;50.38
72096;BME280;59968;51.084;16.748;2023-02-28T08:41:42;101755.88;;;5.44;49.70
72096;BME280;59968;51.084;16.748;2023-02-28T08:44:10;101758.77;;;5.53;49.88
72096;BME280;59968;51.084;16.748;2023-02-28T08:46:38;101756.68;;;5.59;49.47
72096;BME280;59968;51.084;16.748;2023-02-28T08:49:09;101759.92;;;5.64;49.72
72096;BME280;59968;51.084;16.748;2023-02-28T08:51:38;101757.08;;;5.67;49.39
72096;BME280;59968;51.084;16.748;2023-02-28T08:54:08;101760.05;;;5.67;49.30
72096;BME280;59968;51.084;16.748;2023-02-28T08:56:36;101763.77;;;5.70;49.02
72096;BME280;59968;51.084;16.748;2023-02-28T08:59:05;101757.58;;;5.70;48.97
72096;BME280;59968;51.084;16.748;2023-02-28T09:01:33;101759.96;;;5.76;48.70
72096;BME280;59968;51.084;16.748;2023-02-28T09:04:02;101756.02;;;5.85;48.27
72096;BME280;59968;51.084;16.748;2023-02-28T09:06:31;101760.31;;;5.83;48.24
72096;BME280;59968;51.084;16.748;2023-02-28T09:09:00;101757.80;;;5.82;48.07
72096;BME280;59968;51.084;16.748;2023-02-28T09:11:29;101761.31;;;5.85;47.86
72096;BME280;59968;51.084;16.748;2023-02-28T09:13:58;101761.40;;;5.93;47.67
72096;BME280;59968;51.084;16.748;2023-02-28T09:16:30;101757.16;;;6.03;47.33
72096;BME280;59968;51.084;16.748;2023-02-28T09:19:01;101756.98;;;6.11;46.89
72096;BME280;59968;51.084;16.748;2023-02-28T09:21:33;101760.07;;;6.15;46.46
72096;BME280;59968;51.084;16.748;2023-02-28T09:24:01;101753.73;;;6.13;46.17
72096;BME280;59968;51.084;16.748;2023-02-28T09:26:30;101753.38;;;6.07;46.17
72096;BME280;59968;51.084;16.748;2023-02-28T09:29:10;101753.14;;;6.08;46.31
72096;BME280;59968;51.084;16.748;2023-02-28T09:31:39;101747.39;;;6.11;46.92
72096;BME280;59968;51.084;16.748;2023-02-28T09:34:08;101744.53;;;6.19;46.60
72096;BME280;59968;51.084;16.748;2023-02-28T09:36:37;101745.15;;;6.15;45.90
72096;BME280;59968;51.084;16.748;2023-02-28T09:39:13;101745.33;;;6.02;45.47
72096;BME280;59968;51.084;16.748;2023-02-28T09:41:47;101739.07;;;6.02;46.13
72096;BME280;59968;51.084;16.748;2023-02-28T09:44:45;101742.44;;;6.09;46.39
72096;BME280;59968;51.084;16.748;2023-02-28T09:47:34;101737.59;;;6.17;45.78
72096;BME280;59968;51.084;16.748;2023-02-28T09:52:58;101733.84;;;6.29;45.70
72096;BME280;59968;51.084;16.748;2023-02-28T09:55:49;101737.93;;;6.40;45.75
72096;BME280;59968;51.084;16.748;2023-02-28T09:58:34;101734.65;;;6.52;45.39
72096;BME280;59968;51.084;16.748;2023-02-28T10:01:29;101735.23;;;6.57;44.64
72096;BME280;59968;51.084;16.748;2023-02-28T10:06:51;101738.04;;;6.41;44.91
72096;BME280;59968;51.084;16.748;2023-02-28T10:09:25;101739.67;;;6.42;45.37
72096;BME280;59968;51.084;16.748;2023-02-28T10:12:00;101738.12;;;6.48;45.22
72096;BME280;59968;51.084;16.748;2023-02-28T10:14:33;101737.27;;;6.47;44.90
72096;BME280;59968;51.084;16.748;2023-02-28T10:17:12;101740.21;;;6.43;45.54
72096;BME280;59968;51.084;16.748;2023-02-28T10:24:51;101737.66;;;6.49;45.02
72096;BME280;59968;51.084;16.748;2023-02-28T10:27:23;101734.31;;;6.48;45.46
72096;BME280;59968;51.084;16.748;2023-02-28T10:29:54;101736.88;;;6.50;45.37
72096;BME280;59968;51.084;16.748;2023-02-28T10:32:31;101731.65;;;6.47;45.33
72096;BME280;59968;51.084;16.748;2023-02-28T10:37:39;101734.23;;;6.37;46.16
72096;BME280;59968;51.084;16.748;2023-02-28T10:42:59;101729.55;;;6.25;45.69
72096;BME280;59968;51.084;16.748;2023-02-28T10:45:34;101727.96;;;6.15;45.68
72096;BME280;59968;51.084;16.748;2023-02-28T11:01:41;101718.34;;;5.99;45.00
72096;BME280;59968;51.084;16.748;2023-02-28T11:07:18;101711.38;;;5.83;45.11
72096;BME280;59968;51.084;16.748;2023-02-28T11:09:55;101712.23;;;5.79;45.45
72096;BME280;59968;51.084;16.748;2023-02-28T11:12:40;101708.10;;;5.70;45.65
72096;BME280;59968;51.084;16.748;2023-02-28T11:15:57;101706.09;;;5.74;46.16
72096;BME280;59968;51.084;16.748;2023-02-28T11:18:30;101706.57;;;5.83;45.89
72096;BME280;59968;51.084;16.748;2023-02-28T11:21:02;101705.08;;;5.91;46.19
72096;BME280;59968;51.084;16.748;2023-02-28T11:23:34;101706.02;;;6.01;46.05
72096;BME280;59968;51.084;16.748;2023-02-28T11:26:04;101703.70;;;6.10;45.70
72096;BME280;59968;51.084;16.748;2023-02-28T11:28:41;101704.06;;;6.12;45.28
72096;BME280;59968;51.084;16.748;2023-02-28T11:38:48;101693.13;;;6.33;45.33
72096;BME280;59968;51.084;16.748;2023-02-28T11:41:44;101693.98;;;6.44;45.13
72096;BME280;59968;51.084;16.748;2023-02-28T11:44:17;101693.80;;;6.46;44.65
72096;BME280;59968;51.084;16.748;2023-02-28T11:46:57;101696.19;;;6.50;44.63
72096;BME280;59968;51.084;16.748;2023-02-28T12:04:11;101682.52;;;6.57;46.01
72096;BME280;59968;51.084;16.748;2023-02-28T12:06:55;101683.13;;;6.56;45.85
72096;BME280;59968;51.084;16.748;2023-02-28T12:15:28;101670.64;;;6.60;46.18
72096;BME280;59968;51.084;16.748;2023-02-28T12:20:49;101662.87;;;6.64;45.36
72096;BME280;59968;51.084;16.748;2023-02-28T12:23:48;101660.34;;;6.63;45.38
72096;BME280;59968;51.084;16.748;2023-02-28T12:26:38;101654.27;;;6.68;46.05
72096;BME280;59968;51.084;16.748;2023-02-28T12:29:25;101657.12;;;6.73;45.86
72096;BME280;59968;51.084;16.748;2023-02-28T12:32:06;101657.82;;;6.78;45.85
72096;BME280;59968;51.084;16.748;2023-02-28T12:40:21;101646.33;;;6.98;45.31
72096;BME280;59968;51.084;16.748;2023-02-28T12:42:53;101647.84;;;7.04;45.48
72096;BME280;59968;51.084;16.748;2023-02-28T12:45:26;101641.04;;;7.09;45.40
72096;BME280;59968;51.084;16.748;2023-02-28T12:48:00;101637.00;;;7.15;45.11
72096;BME280;59968;51.084;16.748;2023-02-28T12:50:32;101632.64;;;7.24;44.34
72096;BME280;59968;51.084;16.748;2023-02-28T12:56:02;101631.40;;;7.34;44.42
72096;BME280;59968;51.084;16.748;2023-02-28T12:58:44;101630.23;;;7.32;43.75
72096;BME280;59968;51.084;16.748;2023-02-28T13:04:36;101628.80;;;7.09;44.22
72096;BME280;59968;51.084;16.748;2023-02-28T13:07:17;101626.68;;;7.02;44.43
72096;BME280;59968;51.084;16.748;2023-02-28T13:09:59;101626.17;;;7.04;44.59
72096;BME280;59968;51.084;16.748;2023-02-28T13:12:29;101621.50;;;7.06;44.42
72096;BME280;59968;51.084;16.748;2023-02-28T13:15:47;101622.09;;;7.05;45.01
72096;BME280;59968;51.084;16.748;2023-02-28T13:17:58;101625.59;;;7.03;45.02
72096;BME280;59968;51.084;16.748;2023-02-28T13:20:35;101626.48;;;6.99;45.04
72096;BME280;59968;51.084;16.748;2023-02-28T13:23:39;101625.54;;;6.90;45.09
72096;BME280;59968;51.084;16.748;2023-02-28T13:26:08;101626.09;;;6.80;45.45
72096;BME280;59968;51.084;16.748;2023-02-28T13:31:24;101628.70;;;6.65;45.39
72096;BME280;59968;51.084;16.748;2023-02-28T13:36:29;101624.73;;;6.66;45.59
72096;BME280;59968;51.084;16.748;2023-02-28T13:39:00;101625.73;;;6.70;45.87
72096;BME280;59968;51.084;16.748;2023-02-28T13:44:21;101630.05;;;6.78;45.52
72096;BME280;59968;51.084;16.748;2023-02-28T13:49:29;101622.70;;;6.79;45.15
72096;BME280;59968;51.084;16.748;2023-02-28T14:01:08;101611.11;;;6.84;45.55
72096;BME280;59968;51.084;16.748;2023-02-28T14:06:51;101602.50;;;6.76;46.64
72096;BME280;59968;51.084;16.748;2023-02-28T14:09:31;101598.32;;;6.75;46.16
72096;BME280;59968;51.084;16.748;2023-02-28T14:18:28;101586.95;;;6.89;46.61
72096;BME280;59968;51.084;16.748;2023-02-28T14:21:11;101582.73;;;6.90;46.20
72096;BME280;59968;51.084;16.748;2023-02-28T14:37:30;101581.66;;;6.65;46.83
72096;BME280;59968;51.084;16.748;2023-02-28T14:40:02;101582.30;;;6.64;46.97
72096;BME280;59968;51.084;16.748;2023-02-28T14:42:34;101583.23;;;6.67;46.61
72096;BME280;59968;51.084;16.748;2023-02-28T14:45:04;101585.85;;;6.62;46.37
72096;BME280;59968;51.084;16.748;2023-02-28T14:47:35;101581.75;;;6.54;46.48
72096;BME280;59968;51.084;16.748;2023-02-28T14:50:04;101579.91;;;6.49;46.43
72096;BME280;59968;51.084;16.748;2023-02-28T14:52:34;101577.79;;;6.46;46.48
72096;BME280;59968;51.084;16.748;2023-02-28T14:55:05;101576.58;;;6.46;46.52
72096;BME280;59968;51.084;16.748;2023-02-28T14:57:40;101578.68;;;6.46;46.47
72096;BME280;59968;51.084;16.748;2023-02-28T15:00:26;101578.91;;;6.45;47.44
72096;BME280;59968;51.084;16.748;2023-02-28T15:02:57;101578.84;;;6.44;47.16
72096;BME280;59968;51.084;16.748;2023-02-28T15:08:04;101581.32;;;6.41;47.30
72096;BME280;59968;51.084;16.748;2023-02-28T15:10:34;101583.76;;;6.40;47.00
72096;BME280;59968;51.084;16.748;2023-02-28T15:13:06;101581.37;;;6.40;46.81
72096;BME280;59968;51.084;16.748;2023-02-28T15:15:55;101580.16;;;6.41;47.04
72096;BME280;59968;51.084;16.748;2023-02-28T15:18:54;101581.32;;;6.35;47.66
72096;BME280;59968;51.084;16.748;2023-02-28T15:21:28;101582.06;;;6.30;48.00
72096;BME280;59968;51.084;16.748;2023-02-28T15:24:04;101582.61;;;6.24;47.44
72096;BME280;59968;51.084;16.748;2023-02-28T15:26:39;101577.77;;;6.19;48.02
72096;BME280;59968;51.084;16.748;2023-02-28T15:29:13;101581.46;;;6.16;48.48
72096;BME280;59968;51.084;16.748;2023-02-28T15:31:47;101581.84;;;6.13;49.14
72096;BME280;59968;51.084;16.748;2023-02-28T15:34:37;101580.14;;;6.09;49.09
72096;BME280;59968;51.084;16.748;2023-02-28T15:37:40;101580.33;;;6.05;49.01
72096;BME280;59968;51.084;16.748;2023-02-28T15:43:29;101570.98;;;5.98;48.64
72096;BME280;59968;51.084;16.748;2023-02-28T15:46:03;101573.14;;;5.97;48.66
72096;BME280;59968;51.084;16.748;2023-02-28T15:48:36;101574.90;;;5.92;49.64
72096;BME280;59968;51.084;16.748;2023-02-28T15:51:36;101572.74;;;5.86;50.04
72096;BME280;59968;51.084;16.748;2023-02-28T15:54:11;101572.88;;;5.78;50.27
72096;BME280;59968;51.084;16.748;2023-02-28T15:56:51;101572.65;;;5.71;49.94
72096;BME280;59968;51.084;16.748;2023-02-28T15:59:28;101571.25;;;5.61;50.72
72096;BME280;59968;51.084;16.748;2023-02-28T16:04:32;101572.98;;;5.45;51.07
72096;BME280;59968;51.084;16.748;2023-02-28T16:07:04;101574.61;;;5.33;51.50
72096;BME280;59968;51.084;16.748;2023-02-28T16:09:34;101573.20;;;5.23;51.94